Denali Natl Park, AK

6:06 PM AKST on January 23, 2017 (GMT -0900)
Yanert View 2350ft | | Change Station

Elev 2350 ft 63.65 °N, 148.77 °W | Updated 6 seconds ago

Mostly Cloudy
Mostly Cloudy
16.5 °F
Feels Like 8 °F
N
5.8
Wind Variable Wind from West
Gusts 7.4 mph

Today
High -- | Low -- °F
--% Chance of Precip.
Yesterday
High -- | Low -- °F
Precip. -- in
Pressure 29.25 in
Visibility 10.0 miles
Clouds Mostly Cloudy 4800 ft
Windchill 8 °F
Dew Point 1 °F
Humidity 49%
Rainfall 0.00 in
Snow Depth Not available.
9:55 AM 4:18 PM
Waning Crescent, 14% visible
METAR PAIN 240256Z AUTO 20005KT 10SM BKN048 M08/M12 A2925 RMK AO1 57014
Pressure 29.25 in
Visibility 10.0 miles
Clouds Mostly Cloudy 4800 ft
Windchill 8 °F
Dew Point 1 °F
Humidity 49%
Rainfall 0.00 in
Snow Depth Not available.
9:55 AM 4:18 PM
Waning Crescent, 14% visible
METAR PAIN 240256Z AUTO 20005KT 10SM BKN048 M08/M12 A2925 RMK AO1 57014

Get Your Daily Forecast Email!

Thanks for signing up!

Be on the lookout for a verification email in your inbox.

You'll start receiving the daily forecast at 8 AM.

×

10-Day Weather Forecast

Almanac

Astronomy

Jan. 23, 2017 Rise Set
Actual Time
Civil Twilight
Nautical Twilight
Astronomical Twilight
Moon
Length of Visible Light
Length of Day
Tomorrow will be .
, % of the Moon is Illuminated

Today's Extremes

State Highs State Lows

Community

WunderPhotos

Upload Photos

1,962,540 photos uploaded!

WunderBlog® & News

Nearby

Air Quality

  Air Quality AQ Index Pollutant
Not available.

Snow Depth

Station Depth Elevation

Earthquake Activity

City Distance Mag. Time & Date
Minimum magnitude displayed is 2.5.

Coastal Water Temperatures

Place Temperature

Stations

Nearby Weather Stations

Station Location Temp. Windchill Dew Point Humidity Wind Precip. Elev Updated Type
                   

Watches & Warnings

There are currently no watches in effect.